sensor_id;sensor_type;location;lat;lon;timestamp;P1;durP1;ratioP1;P2;durP2;ratioP2
40807;SDS011;26523;52.504;13.498;2022-11-15T00:01:51;39.50;;;14.20;;
40807;SDS011;26523;52.504;13.498;2022-11-15T00:04:16;34.47;;;14.73;;
40807;SDS011;26523;52.504;13.498;2022-11-15T00:06:42;38.20;;;15.68;;
40807;SDS011;26523;52.504;13.498;2022-11-15T00:09:07;35.80;;;13.82;;
40807;SDS011;26523;52.504;13.498;2022-11-15T00:11:33;44.40;;;15.60;;
40807;SDS011;26523;52.504;13.498;2022-11-15T00:13:59;43.33;;;15.38;;
40807;SDS011;26523;52.504;13.498;2022-11-15T00:16:27;36.92;;;14.65;;
40807;SDS011;26523;52.504;13.498;2022-11-15T00:18:53;33.90;;;14.65;;
40807;SDS011;26523;52.504;13.498;2022-11-15T00:21:18;39.92;;;14.63;;
40807;SDS011;26523;52.504;13.498;2022-11-15T00:23:44;41.90;;;13.80;;
40807;SDS011;26523;52.504;13.498;2022-11-15T00:26:13;34.85;;;13.65;;
40807;SDS011;26523;52.504;13.498;2022-11-15T00:28:40;35.75;;;13.60;;
40807;SDS011;26523;52.504;13.498;2022-11-15T00:31:08;40.33;;;15.10;;
40807;SDS011;26523;52.504;13.498;2022-11-15T00:33:36;42.92;;;17.10;;
40807;SDS011;26523;52.504;13.498;2022-11-15T00:36:03;38.80;;;15.20;;
40807;SDS011;26523;52.504;13.498;2022-11-15T00:38:30;45.47;;;15.82;;
40807;SDS011;26523;52.504;13.498;2022-11-15T00:40:57;49.00;;;14.20;;
40807;SDS011;26523;52.504;13.498;2022-11-15T00:43:23;44.80;;;13.45;;
40807;SDS011;26523;52.504;13.498;2022-11-15T00:45:48;38.20;;;13.50;;
40807;SDS011;26523;52.504;13.498;2022-11-15T00:48:14;29.67;;;13.88;;
40807;SDS011;26523;52.504;13.498;2022-11-15T00:50:40;34.78;;;14.98;;
40807;SDS011;26523;52.504;13.498;2022-11-15T00:53:05;37.35;;;14.10;;
40807;SDS011;26523;52.504;13.498;2022-11-15T00:55:31;40.92;;;14.93;;
40807;SDS011;26523;52.504;13.498;2022-11-15T00:57:57;36.20;;;15.65;;
40807;SDS011;26523;52.504;13.498;2022-11-15T01:00:22;37.58;;;14.60;;
40807;SDS011;26523;52.504;13.498;2022-11-15T01:02:48;33.78;;;13.60;;
40807;SDS011;26523;52.504;13.498;2022-11-15T01:05:14;36.47;;;15.13;;
40807;SDS011;26523;52.504;13.498;2022-11-15T01:07:39;38.35;;;13.68;;
40807;SDS011;26523;52.504;13.498;2022-11-15T01:10:05;39.28;;;12.70;;
40807;SDS011;26523;52.504;13.498;2022-11-15T01:12:31;32.38;;;13.07;;
40807;SDS011;26523;52.504;13.498;2022-11-15T01:14:57;43.47;;;13.80;;
40807;SDS011;26523;52.504;13.498;2022-11-15T01:17:23;47.17;;;15.15;;
40807;SDS011;26523;52.504;13.498;2022-11-15T01:19:48;35.88;;;14.13;;
40807;SDS011;26523;52.504;13.498;2022-11-15T01:22:14;35.55;;;13.75;;
40807;SDS011;26523;52.504;13.498;2022-11-15T01:24:40;40.75;;;13.55;;
40807;SDS011;26523;52.504;13.498;2022-11-15T01:27:06;38.65;;;14.02;;
40807;SDS011;26523;52.504;13.498;2022-11-15T01:29:32;44.53;;;15.32;;
40807;SDS011;26523;52.504;13.498;2022-11-15T01:31:57;36.95;;;14.50;;
40807;SDS011;26523;52.504;13.498;2022-11-15T01:34:23;36.03;;;14.27;;
40807;SDS011;26523;52.504;13.498;2022-11-15T01:36:49;34.00;;;12.93;;
40807;SDS011;26523;52.504;13.498;2022-11-15T01:39:14;39.13;;;15.13;;
40807;SDS011;26523;52.504;13.498;2022-11-15T01:41:40;40.42;;;13.70;;
40807;SDS011;26523;52.504;13.498;2022-11-15T01:47:04;38.58;;;12.55;;
40807;SDS011;26523;52.504;13.498;2022-11-15T01:49:56;36.38;;;14.60;;
40807;SDS011;26523;52.504;13.498;2022-11-15T01:52:26;34.67;;;13.98;;
40807;SDS011;26523;52.504;13.498;2022-11-15T01:54:56;35.35;;;14.15;;
40807;SDS011;26523;52.504;13.498;2022-11-15T01:57:24;38.45;;;14.00;;
40807;SDS011;26523;52.504;13.498;2022-11-15T01:59:50;37.42;;;14.15;;
40807;SDS011;26523;52.504;13.498;2022-11-15T02:02:15;42.38;;;13.43;;
40807;SDS011;26523;52.504;13.498;2022-11-15T02:04:45;42.63;;;15.88;;
40807;SDS011;26523;52.504;13.498;2022-11-15T02:07:13;38.50;;;13.88;;
40807;SDS011;26523;52.504;13.498;2022-11-15T02:09:42;33.22;;;14.52;;
40807;SDS011;26523;52.504;13.498;2022-11-15T02:12:09;38.00;;;13.68;;
40807;SDS011;26523;52.504;13.498;2022-11-15T02:14:38;41.35;;;15.00;;
40807;SDS011;26523;52.504;13.498;2022-11-15T02:23:11;34.42;;;13.48;;
40807;SDS011;26523;52.504;13.498;2022-11-15T02:28:32;46.20;;;15.20;;
40807;SDS011;26523;52.504;13.498;2022-11-15T02:31:45;34.35;;;13.85;;
40807;SDS011;26523;52.504;13.498;2022-11-15T02:34:12;38.92;;;13.50;;
40807;SDS011;26523;52.504;13.498;2022-11-15T02:42:30;37.03;;;14.52;;
40807;SDS011;26523;52.504;13.498;2022-11-15T02:45:21;47.58;;;14.27;;
40807;SDS011;26523;52.504;13.498;2022-11-15T02:47:56;31.10;;;12.32;;
40807;SDS011;26523;52.504;13.498;2022-11-15T02:50:27;41.42;;;14.77;;
40807;SDS011;26523;52.504;13.498;2022-11-15T02:52:54;33.30;;;14.32;;
40807;SDS011;26523;52.504;13.498;2022-11-15T02:58:07;30.35;;;13.93;;
40807;SDS011;26523;52.504;13.498;2022-11-15T03:03:41;38.83;;;15.13;;
40807;SDS011;26523;52.504;13.498;2022-11-15T03:09:26;49.50;;;13.38;;
40807;SDS011;26523;52.504;13.498;2022-11-15T03:12:16;43.03;;;15.35;;
40807;SDS011;26523;52.504;13.498;2022-11-15T03:14:56;37.95;;;14.43;;
40807;SDS011;26523;52.504;13.498;2022-11-15T03:17:30;34.28;;;13.35;;
40807;SDS011;26523;52.504;13.498;2022-11-15T03:20:05;33.42;;;13.18;;
40807;SDS011;26523;52.504;13.498;2022-11-15T03:22:33;42.55;;;15.38;;
40807;SDS011;26523;52.504;13.498;2022-11-15T03:25:04;35.83;;;14.15;;
40807;SDS011;26523;52.504;13.498;2022-11-15T03:27:35;32.28;;;13.10;;
40807;SDS011;26523;52.504;13.498;2022-11-15T03:30:08;36.35;;;13.63;;
40807;SDS011;26523;52.504;13.498;2022-11-15T03:32:36;39.95;;;13.85;;
40807;SDS011;26523;52.504;13.498;2022-11-15T03:35:29;37.55;;;14.95;;
40807;SDS011;26523;52.504;13.498;2022-11-15T03:38:00;34.90;;;13.52;;
40807;SDS011;26523;52.504;13.498;2022-11-15T03:43:43;38.08;;;12.27;;
40807;SDS011;26523;52.504;13.498;2022-11-15T03:46:28;32.55;;;14.23;;
40807;SDS011;26523;52.504;13.498;2022-11-15T03:49:09;39.55;;;13.70;;
40807;SDS011;26523;52.504;13.498;2022-11-15T03:51:38;35.60;;;13.40;;
40807;SDS011;26523;52.504;13.498;2022-11-15T03:54:05;39.80;;;13.57;;
40807;SDS011;26523;52.504;13.498;2022-11-15T03:56:31;37.80;;;12.93;;
40807;SDS011;26523;52.504;13.498;2022-11-15T03:58:56;33.20;;;13.73;;
40807;SDS011;26523;52.504;13.498;2022-11-15T04:01:22;38.17;;;15.15;;
40807;SDS011;26523;52.504;13.498;2022-11-15T04:03:48;33.53;;;14.23;;
40807;SDS011;26523;52.504;13.498;2022-11-15T04:06:13;45.30;;;14.25;;
40807;SDS011;26523;52.504;13.498;2022-11-15T04:08:39;37.72;;;16.90;;
40807;SDS011;26523;52.504;13.498;2022-11-15T04:11:05;38.72;;;14.30;;
40807;SDS011;26523;52.504;13.498;2022-11-15T04:13:30;45.65;;;16.40;;
40807;SDS011;26523;52.504;13.498;2022-11-15T04:15:56;40.50;;;16.08;;
40807;SDS011;26523;52.504;13.498;2022-11-15T04:18:22;40.53;;;14.70;;
40807;SDS011;26523;52.504;13.498;2022-11-15T04:20:47;38.78;;;15.05;;
40807;SDS011;26523;52.504;13.498;2022-11-15T04:23:31;43.30;;;15.60;;
40807;SDS011;26523;52.504;13.498;2022-11-15T04:26:16;40.33;;;15.23;;
40807;SDS011;26523;52.504;13.498;2022-11-15T04:28:44;35.55;;;15.27;;
40807;SDS011;26523;52.504;13.498;2022-11-15T04:31:28;38.42;;;15.43;;
40807;SDS011;26523;52.504;13.498;2022-11-15T04:33:54;36.80;;;13.57;;
40807;SDS011;26523;52.504;13.498;2022-11-15T04:36:20;46.30;;;16.52;;
40807;SDS011;26523;52.504;13.498;2022-11-15T04:39:05;33.15;;;13.98;;
40807;SDS011;26523;52.504;13.498;2022-11-15T04:41:30;34.13;;;14.60;;
40807;SDS011;26523;52.504;13.498;2022-11-15T04:43:56;38.80;;;14.27;;
40807;SDS011;26523;52.504;13.498;2022-11-15T04:46:22;34.90;;;14.98;;
40807;SDS011;26523;52.504;13.498;2022-11-15T04:48:49;35.33;;;13.38;;
40807;SDS011;26523;52.504;13.498;2022-11-15T04:51:15;41.47;;;14.85;;
40807;SDS011;26523;52.504;13.498;2022-11-15T04:53:41;39.25;;;14.88;;
40807;SDS011;26523;52.504;13.498;2022-11-15T04:56:07;36.55;;;14.18;;
40807;SDS011;26523;52.504;13.498;2022-11-15T04:58:32;38.88;;;14.93;;
40807;SDS011;26523;52.504;13.498;2022-11-15T05:01:05;35.85;;;13.35;;
40807;SDS011;26523;52.504;13.498;2022-11-15T05:03:32;31.77;;;13.70;;
40807;SDS011;26523;52.504;13.498;2022-11-15T05:06:17;43.85;;;15.18;;
40807;SDS011;26523;52.504;13.498;2022-11-15T05:08:42;32.42;;;14.27;;
40807;SDS011;26523;52.504;13.498;2022-11-15T05:11:08;41.05;;;16.92;;
40807;SDS011;26523;52.504;13.498;2022-11-15T05:13:33;37.92;;;16.35;;
40807;SDS011;26523;52.504;13.498;2022-11-15T05:15:59;34.05;;;14.20;;
40807;SDS011;26523;52.504;13.498;2022-11-15T05:18:25;40.35;;;15.57;;
40807;SDS011;26523;52.504;13.498;2022-11-15T05:20:50;38.33;;;14.32;;
40807;SDS011;26523;52.504;13.498;2022-11-15T05:23:16;38.08;;;14.23;;
40807;SDS011;26523;52.504;13.498;2022-11-15T05:25:42;39.60;;;14.15;;
40807;SDS011;26523;52.504;13.498;2022-11-15T05:28:07;42.20;;;14.02;;
40807;SDS011;26523;52.504;13.498;2022-11-15T05:30:33;40.00;;;14.63;;
40807;SDS011;26523;52.504;13.498;2022-11-15T05:32:59;38.92;;;14.23;;
40807;SDS011;26523;52.504;13.498;2022-11-15T05:35:29;39.60;;;14.63;;
40807;SDS011;26523;52.504;13.498;2022-11-15T05:38:04;32.08;;;14.57;;
40807;SDS011;26523;52.504;13.498;2022-11-15T05:40:30;37.45;;;13.85;;
40807;SDS011;26523;52.504;13.498;2022-11-15T05:42:56;30.30;;;12.75;;
40807;SDS011;26523;52.504;13.498;2022-11-15T05:45:24;46.95;;;15.15;;
40807;SDS011;26523;52.504;13.498;2022-11-15T05:47:50;36.03;;;15.35;;
40807;SDS011;26523;52.504;13.498;2022-11-15T05:50:16;40.38;;;15.82;;
40807;SDS011;26523;52.504;13.498;2022-11-15T05:52:43;41.17;;;15.35;;
40807;SDS011;26523;52.504;13.498;2022-11-15T05:55:10;37.17;;;14.30;;
40807;SDS011;26523;52.504;13.498;2022-11-15T05:57:36;42.70;;;16.77;;
40807;SDS011;26523;52.504;13.498;2022-11-15T06:00:03;40.85;;;16.00;;
40807;SDS011;26523;52.504;13.498;2022-11-15T06:02:29;37.17;;;14.98;;
40807;SDS011;26523;52.504;13.498;2022-11-15T06:04:55;45.53;;;17.35;;
40807;SDS011;26523;52.504;13.498;2022-11-15T06:07:20;35.83;;;15.02;;
40807;SDS011;26523;52.504;13.498;2022-11-15T06:09:46;40.33;;;15.50;;
40807;SDS011;26523;52.504;13.498;2022-11-15T06:12:12;46.58;;;14.93;;
40807;SDS011;26523;52.504;13.498;2022-11-15T06:14:38;41.10;;;14.27;;
40807;SDS011;26523;52.504;13.498;2022-11-15T06:17:04;36.97;;;16.50;;
40807;SDS011;26523;52.504;13.498;2022-11-15T06:19:29;33.97;;;14.32;;
40807;SDS011;26523;52.504;13.498;2022-11-15T06:21:58;39.65;;;14.75;;
40807;SDS011;26523;52.504;13.498;2022-11-15T06:24:24;37.15;;;16.65;;
40807;SDS011;26523;52.504;13.498;2022-11-15T06:26:50;39.83;;;17.75;;
40807;SDS011;26523;52.504;13.498;2022-11-15T06:29:16;33.13;;;13.15;;
40807;SDS011;26523;52.504;13.498;2022-11-15T06:31:41;39.67;;;15.50;;
40807;SDS011;26523;52.504;13.498;2022-11-15T06:34:07;55.15;;;19.80;;
40807;SDS011;26523;52.504;13.498;2022-11-15T06:36:36;33.08;;;13.02;;
40807;SDS011;26523;52.504;13.498;2022-11-15T06:39:02;38.80;;;14.98;;
40807;SDS011;26523;52.504;13.498;2022-11-15T06:41:29;44.03;;;15.20;;
40807;SDS011;26523;52.504;13.498;2022-11-15T06:43:54;36.38;;;14.43;;
40807;SDS011;26523;52.504;13.498;2022-11-15T06:46:21;39.38;;;14.27;;
40807;SDS011;26523;52.504;13.498;2022-11-15T06:48:47;37.45;;;15.35;;
40807;SDS011;26523;52.504;13.498;2022-11-15T06:51:14;44.60;;;13.98;;
40807;SDS011;26523;52.504;13.498;2022-11-15T06:53:39;38.55;;;14.13;;
40807;SDS011;26523;52.504;13.498;2022-11-15T06:56:05;39.50;;;16.25;;
40807;SDS011;26523;52.504;13.498;2022-11-15T06:58:32;33.78;;;13.27;;
40807;SDS011;26523;52.504;13.498;2022-11-15T07:01:02;32.95;;;13.52;;
40807;SDS011;26523;52.504;13.498;2022-11-15T07:03:30;35.00;;;15.63;;
40807;SDS011;26523;52.504;13.498;2022-11-15T07:05:56;35.55;;;14.02;;
40807;SDS011;26523;52.504;13.498;2022-11-15T07:08:23;33.70;;;13.70;;
40807;SDS011;26523;52.504;13.498;2022-11-15T07:10:51;35.63;;;13.48;;
40807;SDS011;26523;52.504;13.498;2022-11-15T07:13:17;41.15;;;13.55;;
40807;SDS011;26523;52.504;13.498;2022-11-15T07:15:43;42.05;;;14.85;;
40807;SDS011;26523;52.504;13.498;2022-11-15T07:18:08;44.33;;;16.70;;
40807;SDS011;26523;52.504;13.498;2022-11-15T07:20:34;34.13;;;13.07;;
40807;SDS011;26523;52.504;13.498;2022-11-15T07:23:00;36.38;;;14.10;;
40807;SDS011;26523;52.504;13.498;2022-11-15T07:25:30;37.78;;;14.43;;
40807;SDS011;26523;52.504;13.498;2022-11-15T07:27:56;36.47;;;15.30;;
40807;SDS011;26523;52.504;13.498;2022-11-15T07:30:23;40.25;;;14.95;;
40807;SDS011;26523;52.504;13.498;2022-11-15T07:32:54;32.95;;;12.93;;
40807;SDS011;26523;52.504;13.498;2022-11-15T07:35:20;40.80;;;15.98;;
40807;SDS011;26523;52.504;13.498;2022-11-15T07:37:59;39.70;;;13.93;;
40807;SDS011;26523;52.504;13.498;2022-11-15T07:40:26;40.65;;;14.80;;
40807;SDS011;26523;52.504;13.498;2022-11-15T07:43:00;40.47;;;15.25;;
40807;SDS011;26523;52.504;13.498;2022-11-15T07:45:26;36.10;;;13.75;;
40807;SDS011;26523;52.504;13.498;2022-11-15T07:47:52;40.75;;;15.32;;
40807;SDS011;26523;52.504;13.498;2022-11-15T07:50:18;35.65;;;15.65;;
40807;SDS011;26523;52.504;13.498;2022-11-15T07:52:44;34.67;;;13.65;;
40807;SDS011;26523;52.504;13.498;2022-11-15T07:55:11;34.53;;;12.75;;
40807;SDS011;26523;52.504;13.498;2022-11-15T07:57:37;41.65;;;15.32;;
40807;SDS011;26523;52.504;13.498;2022-11-15T08:00:03;36.10;;;14.65;;
40807;SDS011;26523;52.504;13.498;2022-11-15T08:02:30;34.20;;;14.88;;
40807;SDS011;26523;52.504;13.498;2022-11-15T08:04:56;32.75;;;14.13;;
40807;SDS011;26523;52.504;13.498;2022-11-15T08:07:22;37.95;;;15.48;;
40807;SDS011;26523;52.504;13.498;2022-11-15T08:09:48;36.67;;;13.90;;
40807;SDS011;26523;52.504;13.498;2022-11-15T08:12:14;41.13;;;16.23;;
40807;SDS011;26523;52.504;13.498;2022-11-15T08:14:39;38.22;;;14.77;;
40807;SDS011;26523;52.504;13.498;2022-11-15T08:17:05;34.95;;;13.82;;
40807;SDS011;26523;52.504;13.498;2022-11-15T08:19:31;33.42;;;13.52;;
40807;SDS011;26523;52.504;13.498;2022-11-15T08:21:56;38.78;;;13.70;;
40807;SDS011;26523;52.504;13.498;2022-11-15T08:24:23;31.08;;;13.25;;
40807;SDS011;26523;52.504;13.498;2022-11-15T08:26:48;38.78;;;14.50;;
40807;SDS011;26523;52.504;13.498;2022-11-15T08:29:14;42.38;;;15.38;;
40807;SDS011;26523;52.504;13.498;2022-11-15T08:31:40;33.13;;;14.15;;
40807;SDS011;26523;52.504;13.498;2022-11-15T08:34:05;36.78;;;14.07;;
40807;SDS011;26523;52.504;13.498;2022-11-15T08:36:31;33.20;;;14.07;;
40807;SDS011;26523;52.504;13.498;2022-11-15T08:38:57;32.60;;;13.80;;
40807;SDS011;26523;52.504;13.498;2022-11-15T08:41:35;30.23;;;14.25;;
40807;SDS011;26523;52.504;13.498;2022-11-15T08:44:02;31.92;;;13.18;;
40807;SDS011;26523;52.504;13.498;2022-11-15T08:46:28;34.55;;;14.15;;
40807;SDS011;26523;52.504;13.498;2022-11-15T08:48:54;38.95;;;15.27;;
40807;SDS011;26523;52.504;13.498;2022-11-15T08:51:19;35.30;;;15.02;;
40807;SDS011;26523;52.504;13.498;2022-11-15T08:53:45;27.58;;;14.23;;
40807;SDS011;26523;52.504;13.498;2022-11-15T08:56:11;34.92;;;14.20;;
40807;SDS011;26523;52.504;13.498;2022-11-15T08:58:39;36.83;;;13.70;;
40807;SDS011;26523;52.504;13.498;2022-11-15T09:01:05;35.75;;;14.27;;
40807;SDS011;26523;52.504;13.498;2022-11-15T09:03:31;35.05;;;13.65;;
40807;SDS011;26523;52.504;13.498;2022-11-15T09:05:58;34.00;;;14.75;;
40807;SDS011;26523;52.504;13.498;2022-11-15T09:08:25;35.85;;;15.82;;
40807;SDS011;26523;52.504;13.498;2022-11-15T09:10:54;32.85;;;13.45;;
40807;SDS011;26523;52.504;13.498;2022-11-15T09:13:19;35.10;;;15.10;;
40807;SDS011;26523;52.504;13.498;2022-11-15T09:15:45;34.00;;;12.65;;
40807;SDS011;26523;52.504;13.498;2022-11-15T09:18:11;29.83;;;13.35;;
40807;SDS011;26523;52.504;13.498;2022-11-15T09:20:37;33.17;;;14.57;;
40807;SDS011;26523;52.504;13.498;2022-11-15T09:23:03;32.58;;;14.02;;
40807;SDS011;26523;52.504;13.498;2022-11-15T09:25:29;31.67;;;13.85;;
40807;SDS011;26523;52.504;13.498;2022-11-15T09:27:56;32.08;;;13.77;;
40807;SDS011;26523;52.504;13.498;2022-11-15T09:30:23;31.63;;;13.43;;
40807;SDS011;26523;52.504;13.498;2022-11-15T09:32:49;38.50;;;13.07;;
40807;SDS011;26523;52.504;13.498;2022-11-15T09:35:14;41.00;;;14.07;;
40807;SDS011;26523;52.504;13.498;2022-11-15T09:37:40;30.75;;;11.98;;
40807;SDS011;26523;52.504;13.498;2022-11-15T09:40:13;33.28;;;10.93;;
40807;SDS011;26523;52.504;13.498;2022-11-15T09:48:56;32.03;;;12.65;;
40807;SDS011;26523;52.504;13.498;2022-11-15T09:51:33;31.73;;;11.23;;
40807;SDS011;26523;52.504;13.498;2022-11-15T09:59:51;31.65;;;12.63;;
40807;SDS011;26523;52.504;13.498;2022-11-15T10:04:56;31.58;;;11.50;;
40807;SDS011;26523;52.504;13.498;2022-11-15T10:12:47;26.65;;;10.75;;
40807;SDS011;26523;52.504;13.498;2022-11-15T10:15:16;26.45;;;10.68;;
40807;SDS011;26523;52.504;13.498;2022-11-15T10:20:37;21.65;;;8.85;;
40807;SDS011;26523;52.504;13.498;2022-11-15T10:23:17;25.60;;;10.18;;
40807;SDS011;26523;52.504;13.498;2022-11-15T10:25:45;25.23;;;9.52;;
40807;SDS011;26523;52.504;13.498;2022-11-15T10:30:51;19.02;;;9.35;;
40807;SDS011;26523;52.504;13.498;2022-11-15T10:33:26;22.30;;;10.18;;
40807;SDS011;26523;52.504;13.498;2022-11-15T10:38:50;22.98;;;9.82;;
40807;SDS011;26523;52.504;13.498;2022-11-15T10:44:07;20.83;;;8.95;;
40807;SDS011;26523;52.504;13.498;2022-11-15T10:46:45;19.70;;;8.27;;
40807;SDS011;26523;52.504;13.498;2022-11-15T10:49:18;21.20;;;8.95;;
40807;SDS011;26523;52.504;13.498;2022-11-15T10:54:25;19.90;;;7.75;;
40807;SDS011;26523;52.504;13.498;2022-11-15T10:57:06;19.95;;;8.35;;
40807;SDS011;26523;52.504;13.498;2022-11-15T10:59:42;15.43;;;7.93;;
40807;SDS011;26523;52.504;13.498;2022-11-15T11:02:29;18.23;;;7.63;;
40807;SDS011;26523;52.504;13.498;2022-11-15T11:05:00;23.67;;;8.63;;
40807;SDS011;26523;52.504;13.498;2022-11-15T11:07:29;19.60;;;8.27;;
40807;SDS011;26523;52.504;13.498;2022-11-15T11:10:17;16.83;;;7.95;;
40807;SDS011;26523;52.504;13.498;2022-11-15T11:12:43;22.05;;;9.55;;
40807;SDS011;26523;52.504;13.498;2022-11-15T11:15:10;20.45;;;8.32;;
40807;SDS011;26523;52.504;13.498;2022-11-15T11:20:20;17.80;;;7.68;;
40807;SDS011;26523;52.504;13.498;2022-11-15T11:34:33;23.00;;;7.95;;
40807;SDS011;26523;52.504;13.498;2022-11-15T11:37:27;16.52;;;7.55;;
40807;SDS011;26523;52.504;13.498;2022-11-15T11:43:00;18.80;;;8.27;;
40807;SDS011;26523;52.504;13.498;2022-11-15T11:48:43;19.95;;;7.97;;
40807;SDS011;26523;52.504;13.498;2022-11-15T11:51:34;17.63;;;7.82;;
40807;SDS011;26523;52.504;13.498;2022-11-15T11:56:46;16.98;;;7.90;;
40807;SDS011;26523;52.504;13.498;2022-11-15T11:59:33;18.50;;;8.23;;
40807;SDS011;26523;52.504;13.498;2022-11-15T12:02:27;23.98;;;7.85;;
40807;SDS011;26523;52.504;13.498;2022-11-15T12:05:07;20.45;;;9.00;;
40807;SDS011;26523;52.504;13.498;2022-11-15T12:07:35;18.40;;;7.70;;
40807;SDS011;26523;52.504;13.498;2022-11-15T12:10:24;22.90;;;8.10;;
40807;SDS011;26523;52.504;13.498;2022-11-15T12:15:36;20.80;;;8.55;;
40807;SDS011;26523;52.504;13.498;2022-11-15T12:18:08;18.23;;;7.97;;
40807;SDS011;26523;52.504;13.498;2022-11-15T12:20:40;39.75;;;9.52;;
40807;SDS011;26523;52.504;13.498;2022-11-15T12:23:28;19.45;;;7.47;;
40807;SDS011;26523;52.504;13.498;2022-11-15T12:26:04;19.85;;;7.85;;
40807;SDS011;26523;52.504;13.498;2022-11-15T12:34:04;22.98;;;8.35;;
40807;SDS011;26523;52.504;13.498;2022-11-15T12:36:51;17.80;;;7.38;;
40807;SDS011;26523;52.504;13.498;2022-11-15T12:39:17;17.63;;;7.40;;
40807;SDS011;26523;52.504;13.498;2022-11-15T12:41:44;18.95;;;7.55;;
40807;SDS011;26523;52.504;13.498;2022-11-15T12:47:04;18.75;;;7.75;;
40807;SDS011;26523;52.504;13.498;2022-11-15T12:49:47;14.93;;;7.18;;
40807;SDS011;26523;52.504;13.498;2022-11-15T12:52:13;17.60;;;7.60;;
40807;SDS011;26523;52.504;13.498;2022-11-15T13:17:51;17.58;;;6.70;;
40807;SDS011;26523;52.504;13.498;2022-11-15T13:20:20;16.13;;;6.78;;
40807;SDS011;26523;52.504;13.498;2022-11-15T13:23:10;15.63;;;7.32;;
40807;SDS011;26523;52.504;13.498;2022-11-15T13:33:59;15.32;;;6.88;;
40807;SDS011;26523;52.504;13.498;2022-11-15T13:36:28;12.98;;;5.90;;
40807;SDS011;26523;52.504;13.498;2022-11-15T13:41:29;18.73;;;7.10;;
40807;SDS011;26523;52.504;13.498;2022-11-15T13:43:57;12.60;;;6.80;;
40807;SDS011;26523;52.504;13.498;2022-11-15T13:46:27;16.33;;;7.18;;
40807;SDS011;26523;52.504;13.498;2022-11-15T13:48:58;16.08;;;6.90;;
40807;SDS011;26523;52.504;13.498;2022-11-15T13:59:44;13.40;;;6.75;;
40807;SDS011;26523;52.504;13.498;2022-11-15T14:02:33;12.77;;;6.05;;
40807;SDS011;26523;52.504;13.498;2022-11-15T14:05:05;18.27;;;6.65;;
40807;SDS011;26523;52.504;13.498;2022-11-15T14:07:59;14.98;;;6.25;;
40807;SDS011;26523;52.504;13.498;2022-11-15T14:10:45;15.30;;;6.35;;
40807;SDS011;26523;52.504;13.498;2022-11-15T14:13:28;13.07;;;5.88;;
40807;SDS011;26523;52.504;13.498;2022-11-15T14:16:11;19.10;;;7.70;;
40807;SDS011;26523;52.504;13.498;2022-11-15T14:18:46;18.70;;;7.30;;
40807;SDS011;26523;52.504;13.498;2022-11-15T14:21:14;13.07;;;6.63;;
40807;SDS011;26523;52.504;13.498;2022-11-15T14:23:41;13.48;;;6.70;;
40807;SDS011;26523;52.504;13.498;2022-11-15T14:26:10;16.73;;;7.55;;
40807;SDS011;26523;52.504;13.498;2022-11-15T14:28:56;13.80;;;6.80;;
40807;SDS011;26523;52.504;13.498;2022-11-15T14:31:22;17.05;;;7.53;;
40807;SDS011;26523;52.504;13.498;2022-11-15T14:33:49;18.08;;;8.13;;
40807;SDS011;26523;52.504;13.498;2022-11-15T14:36:35;16.27;;;7.40;;
40807;SDS011;26523;52.504;13.498;2022-11-15T14:39:01;19.63;;;8.35;;
40807;SDS011;26523;52.504;13.498;2022-11-15T14:41:33;15.25;;;7.78;;
40807;SDS011;26523;52.504;13.498;2022-11-15T14:44:03;17.33;;;8.10;;
40807;SDS011;26523;52.504;13.498;2022-11-15T14:46:29;19.13;;;9.20;;
40807;SDS011;26523;52.504;13.498;2022-11-15T14:48:55;14.88;;;8.02;;
40807;SDS011;26523;52.504;13.498;2022-11-15T14:51:21;17.80;;;7.90;;
40807;SDS011;26523;52.504;13.498;2022-11-15T14:53:47;16.00;;;7.60;;
40807;SDS011;26523;52.504;13.498;2022-11-15T14:56:13;19.33;;;8.05;;
40807;SDS011;26523;52.504;13.498;2022-11-15T14:58:41;19.00;;;7.88;;
40807;SDS011;26523;52.504;13.498;2022-11-15T15:01:16;18.30;;;8.25;;
40807;SDS011;26523;52.504;13.498;2022-11-15T15:03:46;16.00;;;7.60;;
40807;SDS011;26523;52.504;13.498;2022-11-15T15:06:12;20.67;;;8.45;;
40807;SDS011;26523;52.504;13.498;2022-11-15T15:08:39;16.42;;;7.80;;
40807;SDS011;26523;52.504;13.498;2022-11-15T15:11:14;17.08;;;7.63;;
40807;SDS011;26523;52.504;13.498;2022-11-15T15:13:43;19.75;;;8.32;;
40807;SDS011;26523;52.504;13.498;2022-11-15T15:16:09;19.13;;;8.30;;
40807;SDS011;26523;52.504;13.498;2022-11-15T15:18:35;17.85;;;7.57;;
40807;SDS011;26523;52.504;13.498;2022-11-15T15:21:00;20.60;;;8.07;;
40807;SDS011;26523;52.504;13.498;2022-11-15T15:23:32;19.88;;;7.88;;
40807;SDS011;26523;52.504;13.498;2022-11-15T15:25:58;16.35;;;7.90;;
40807;SDS011;26523;52.504;13.498;2022-11-15T15:28:24;19.63;;;8.98;;
40807;SDS011;26523;52.504;13.498;2022-11-15T15:30:50;16.00;;;8.05;;
40807;SDS011;26523;52.504;13.498;2022-11-15T15:33:17;18.38;;;7.68;;
40807;SDS011;26523;52.504;13.498;2022-11-15T15:35:43;20.58;;;7.70;;
40807;SDS011;26523;52.504;13.498;2022-11-15T15:38:12;19.00;;;8.30;;
40807;SDS011;26523;52.504;13.498;2022-11-15T15:40:40;21.70;;;8.60;;
40807;SDS011;26523;52.504;13.498;2022-11-15T15:43:06;22.75;;;8.93;;
40807;SDS011;26523;52.504;13.498;2022-11-15T15:45:34;20.77;;;8.98;;
40807;SDS011;26523;52.504;13.498;2022-11-15T15:48:04;17.85;;;8.75;;
40807;SDS011;26523;52.504;13.498;2022-11-15T15:50:33;18.48;;;8.05;;
40807;SDS011;26523;52.504;13.498;2022-11-15T15:53:00;22.98;;;8.98;;
40807;SDS011;26523;52.504;13.498;2022-11-15T15:55:28;20.70;;;8.23;;
40807;SDS011;26523;52.504;13.498;2022-11-15T15:57:54;18.98;;;8.90;;
40807;SDS011;26523;52.504;13.498;2022-11-15T16:00:20;20.13;;;8.60;;
40807;SDS011;26523;52.504;13.498;2022-11-15T16:02:48;20.25;;;9.52;;
40807;SDS011;26523;52.504;13.498;2022-11-15T16:05:14;22.95;;;9.70;;
40807;SDS011;26523;52.504;13.498;2022-11-15T16:07:40;19.83;;;9.43;;
40807;SDS011;26523;52.504;13.498;2022-11-15T16:12:42;21.33;;;8.38;;
40807;SDS011;26523;52.504;13.498;2022-11-15T16:15:08;23.25;;;9.48;;
40807;SDS011;26523;52.504;13.498;2022-11-15T16:17:37;21.40;;;9.18;;
40807;SDS011;26523;52.504;13.498;2022-11-15T16:20:06;18.77;;;8.65;;
40807;SDS011;26523;52.504;13.498;2022-11-15T16:22:35;25.98;;;10.43;;
40807;SDS011;26523;52.504;13.498;2022-11-15T16:25:01;22.27;;;10.00;;
40807;SDS011;26523;52.504;13.498;2022-11-15T16:27:27;22.25;;;11.30;;
40807;SDS011;26523;52.504;13.498;2022-11-15T16:29:53;25.13;;;11.63;;
40807;SDS011;26523;52.504;13.498;2022-11-15T16:32:18;23.17;;;10.45;;
40807;SDS011;26523;52.504;13.498;2022-11-15T16:34:44;23.50;;;10.18;;
40807;SDS011;26523;52.504;13.498;2022-11-15T16:37:21;25.45;;;11.23;;
40807;SDS011;26523;52.504;13.498;2022-11-15T16:39:48;48.30;;;19.02;;
40807;SDS011;26523;52.504;13.498;2022-11-15T16:42:14;29.08;;;12.90;;
40807;SDS011;26523;52.504;13.498;2022-11-15T16:44:40;27.75;;;11.82;;
40807;SDS011;26523;52.504;13.498;2022-11-15T16:47:12;33.55;;;11.65;;
40807;SDS011;26523;52.504;13.498;2022-11-15T16:49:44;31.33;;;13.77;;